createdAt,value
2023-04-18T00:01:43.446Z,100.00
2023-04-18T00:04:28.749Z,100.00
2023-04-18T00:07:10.646Z,100.00
2023-04-18T00:10:00.315Z,100.00
2023-04-18T00:12:40.762Z,100.00
2023-04-18T00:15:11.281Z,100.00
2023-04-18T00:17:44.978Z,100.00
2023-04-18T00:20:27.346Z,100.00
2023-04-18T00:23:01.051Z,100.00
2023-04-18T00:25:35.918Z,100.00
2023-04-18T00:28:23.951Z,100.00
2023-04-18T00:30:59.519Z,100.00
2023-04-18T00:33:37.588Z,100.00
2023-04-18T00:36:12.712Z,100.00
2023-04-18T00:38:49.391Z,100.00
2023-04-18T00:41:28.760Z,100.00
2023-04-18T00:44:14.224Z,100.00
2023-04-18T00:46:44.608Z,100.00
2023-04-18T00:49:18.634Z,100.00
2023-04-18T00:51:51.017Z,100.00
2023-04-18T00:54:24.108Z,100.00
2023-04-18T00:56:57.297Z,100.00
2023-04-18T00:59:52.928Z,100.00
2023-04-18T01:02:23.574Z,100.00
2023-04-18T01:05:09.432Z,100.00
2023-04-18T01:07:53.880Z,100.00
2023-04-18T01:10:28.730Z,100.00
2023-04-18T01:13:23.414Z,100.00
2023-04-18T01:18:45.714Z,100.00
2023-04-18T01:21:28.888Z,100.00
2023-04-18T01:24:08.948Z,100.00
2023-04-18T01:26:39.043Z,100.00
2023-04-18T01:29:08.521Z,100.00
2023-04-18T01:31:44.485Z,100.00
2023-04-18T01:34:19.682Z,100.00
2023-04-18T01:36:54.914Z,100.00
2023-04-18T01:39:25.104Z,100.00
2023-04-18T01:42:27.196Z,100.00
2023-04-18T01:45:11.180Z,100.00
2023-04-18T01:47:44.419Z,100.00
2023-04-18T01:50:15.837Z,100.00
2023-04-18T01:52:51.658Z,100.00
2023-04-18T01:55:23.073Z,100.00
2023-04-18T01:57:55.516Z,100.00
2023-04-18T02:00:31.961Z,100.00
2023-04-18T02:03:05.506Z,100.00
2023-04-18T02:05:32.902Z,100.00
2023-04-18T02:08:16.809Z,100.00
2023-04-18T02:10:46.696Z,100.00
2023-04-18T02:13:27.198Z,100.00
2023-04-18T02:15:53.981Z,100.00
2023-04-18T02:18:37.786Z,100.00
2023-04-18T02:21:11.620Z,100.00
2023-04-18T02:23:39.085Z,100.00
2023-04-18T02:26:09.137Z,100.00
2023-04-18T02:28:41.509Z,100.00
2023-04-18T02:31:23.507Z,100.00
2023-04-18T02:33:55.571Z,100.00
2023-04-18T02:36:33.624Z,100.00
2023-04-18T02:39:28.089Z,100.00
2023-04-18T02:41:59.507Z,100.00
2023-04-18T02:44:34.654Z,100.00
2023-04-18T02:47:04.445Z,100.00
2023-04-18T02:49:37.255Z,100.00
2023-04-18T02:52:22.184Z,100.00
2023-04-18T02:54:53.916Z,100.00
2023-04-18T02:57:28.256Z,100.00
2023-04-18T03:00:09.254Z,100.00
2023-04-18T03:02:44.118Z,100.00
2023-04-18T03:05:45.217Z,100.00
2023-04-18T03:08:15.237Z,100.00
2023-04-18T03:10:59.493Z,100.00
2023-04-18T03:13:37.819Z,100.00
2023-04-18T03:16:08.776Z,100.00
2023-04-18T03:18:42.686Z,100.00
2023-04-18T03:21:21.284Z,100.00
2023-04-18T03:23:51.775Z,100.00
2023-04-18T03:26:19.715Z,100.00
2023-04-18T03:28:49.284Z,100.00
2023-04-18T03:31:20.423Z,100.00
2023-04-18T03:34:01.486Z,100.00
2023-04-18T03:36:33.008Z,100.00
2023-04-18T03:39:08.582Z,100.00
2023-04-18T03:41:50.100Z,100.00
2023-04-18T03:44:31.396Z,100.00
2023-04-18T03:47:03.308Z,100.00
2023-04-18T03:49:33.208Z,100.00
2023-04-18T03:52:04.110Z,100.00
2023-04-18T03:54:31.607Z,100.00
2023-04-18T03:57:12.152Z,100.00
2023-04-18T04:00:06.199Z,100.00
2023-04-18T04:02:33.872Z,100.00
2023-04-18T04:05:12.449Z,100.00
2023-04-18T04:08:00.944Z,100.00
2023-04-18T04:10:31.043Z,100.00
2023-04-18T04:13:06.959Z,100.00
2023-04-18T04:15:39.228Z,100.00
2023-04-18T04:18:19.832Z,100.00
2023-04-18T04:20:49.710Z,100.00
2023-04-18T04:23:40.918Z,100.00
2023-04-18T04:26:15.613Z,100.00
2023-04-18T04:28:43.023Z,100.00
2023-04-18T04:31:27.200Z,100.00
2023-04-18T04:33:53.900Z,100.00
2023-04-18T04:36:30.492Z,100.00
2023-04-18T04:39:00.190Z,100.00
2023-04-18T04:41:27.855Z,100.00
2023-04-18T04:43:54.610Z,100.00
2023-04-18T04:49:20.816Z,100.00
2023-04-18T04:51:52.654Z,100.00
2023-04-18T04:54:37.397Z,100.00
2023-04-18T04:57:07.911Z,100.00
2023-04-18T04:59:37.625Z,100.00
2023-04-18T05:02:11.023Z,100.00
2023-04-18T05:04:51.487Z,100.00
2023-04-18T05:07:18.198Z,100.00
2023-04-18T05:09:47.950Z,100.00
2023-04-18T05:12:21.957Z,100.00
2023-04-18T05:15:03.142Z,100.00
2023-04-18T05:17:36.523Z,100.00
2023-04-18T05:20:04.224Z,100.00
2023-04-18T05:22:31.416Z,100.00
2023-04-18T05:24:58.814Z,100.00
2023-04-18T05:27:32.135Z,100.00
2023-04-18T05:30:03.791Z,100.00
2023-04-18T05:32:31.614Z,100.00
2023-04-18T05:34:58.860Z,100.00
2023-04-18T05:37:29.129Z,100.00
2023-04-18T05:40:05.776Z,100.00
2023-04-18T05:42:38.223Z,100.00
2023-04-18T05:45:14.927Z,100.00
2023-04-18T05:47:43.045Z,100.00
2023-04-18T05:50:10.603Z,100.00
2023-04-18T05:52:41.458Z,100.00
2023-04-18T05:55:09.131Z,100.00
2023-04-18T05:57:42.568Z,100.00
2023-04-18T06:00:20.263Z,100.00
2023-04-18T06:02:47.491Z,100.00
2023-04-18T06:05:18.167Z,100.00
2023-04-18T06:07:45.720Z,100.00
2023-04-18T06:10:16.226Z,100.00
2023-04-18T06:12:43.198Z,100.00
2023-04-18T06:15:16.612Z,100.00
2023-04-18T06:17:46.565Z,100.00
2023-04-18T06:20:16.664Z,100.00
2023-04-18T06:22:50.103Z,100.00
2023-04-18T06:25:16.853Z,100.00
2023-04-18T06:27:45.201Z,100.00
2023-04-18T06:30:15.136Z,100.00
2023-04-18T06:32:42.398Z,100.00
2023-04-18T06:35:09.669Z,100.00
2023-04-18T06:37:36.405Z,100.00
2023-04-18T06:40:04.238Z,100.00
2023-04-18T06:42:36.811Z,100.00
2023-04-18T06:45:04.451Z,100.00
2023-04-18T06:47:39.857Z,100.00
2023-04-18T06:50:09.928Z,100.00
2023-04-18T06:52:40.870Z,100.00
2023-04-18T06:55:11.894Z,100.00
2023-04-18T06:57:42.705Z,100.00
2023-04-18T07:00:10.553Z,100.00
2023-04-18T07:02:41.654Z,100.00
2023-04-18T07:05:08.758Z,100.00
2023-04-18T07:07:40.002Z,100.00
2023-04-18T07:10:13.055Z,100.00
2023-04-18T07:12:40.264Z,100.00
2023-04-18T07:15:11.001Z,100.00
2023-04-18T07:17:43.046Z,100.00
2023-04-18T07:20:12.302Z,100.00
2023-04-18T07:22:44.450Z,100.00
2023-04-18T07:25:19.362Z,100.00
2023-04-18T07:27:46.725Z,100.00
2023-04-18T07:30:13.924Z,100.00
2023-04-18T07:32:40.551Z,100.00
2023-04-18T07:35:10.122Z,100.00
2023-04-18T07:37:36.936Z,100.00
2023-04-18T07:40:05.080Z,100.00
2023-04-18T07:42:32.048Z,100.00
2023-04-18T07:44:59.608Z,100.00
2023-04-18T07:47:29.975Z,100.00
2023-04-18T07:50:00.911Z,100.00
2023-04-18T07:52:27.652Z,100.00
2023-04-18T07:54:54.249Z,100.00
2023-04-18T07:57:21.128Z,100.00
2023-04-18T07:59:47.989Z,100.00
2023-04-18T08:02:21.124Z,100.00
2023-04-18T08:04:52.493Z,100.00
2023-04-18T08:07:19.219Z,100.00
2023-04-18T08:09:45.954Z,100.00
2023-04-18T08:12:15.748Z,100.00
2023-04-18T08:14:42.701Z,100.00
2023-04-18T08:17:09.582Z,100.00
2023-04-18T08:19:41.957Z,100.00
2023-04-18T08:22:12.882Z,100.00
2023-04-18T08:24:39.710Z,100.00
2023-04-18T08:27:07.293Z,100.00
2023-04-18T08:29:37.224Z,100.00
2023-04-18T08:32:07.617Z,100.00
2023-04-18T08:34:38.200Z,100.00
2023-04-18T08:37:11.169Z,100.00
2023-04-18T08:39:41.115Z,100.00
2023-04-18T08:42:10.538Z,100.00
2023-04-18T08:44:37.683Z,100.00
2023-04-18T08:47:07.521Z,100.00
2023-04-18T08:49:36.810Z,100.00
2023-04-18T08:52:16.670Z,100.00
2023-04-18T08:54:45.465Z,100.00
2023-04-18T08:57:23.803Z,100.00
2023-04-18T08:59:51.112Z,100.00
2023-04-18T09:02:19.576Z,100.00
2023-04-18T09:04:49.205Z,100.00
2023-04-18T09:07:17.440Z,100.00
2023-04-18T09:09:50.093Z,100.00
2023-04-18T09:12:19.593Z,100.00
2023-04-18T09:14:47.187Z,100.00
2023-04-18T09:17:22.001Z,100.00
2023-04-18T09:19:50.513Z,100.00
2023-04-18T09:22:18.398Z,100.00
2023-04-18T09:24:57.910Z,100.00
2023-04-18T09:27:24.738Z,100.00
2023-04-18T09:29:55.848Z,100.00
2023-04-18T09:32:27.224Z,100.00
2023-04-18T09:34:58.307Z,100.00
2023-04-18T09:37:26.373Z,100.00
2023-04-18T09:39:53.441Z,100.00
2023-04-18T09:42:21.291Z,100.00
2023-04-18T09:45:09.395Z,100.00
2023-04-18T09:47:37.420Z,100.00
2023-04-18T09:50:05.822Z,100.00
2023-04-18T09:52:35.368Z,100.00
2023-04-18T09:55:04.844Z,100.00
2023-04-18T09:57:35.341Z,99.89
2023-04-18T10:00:08.883Z,100.00
2023-04-18T10:02:47.347Z,97.80
2023-04-18T10:05:15.589Z,100.00
2023-04-18T10:07:45.652Z,100.00
2023-04-18T10:10:13.034Z,97.88
2023-04-18T10:12:41.408Z,96.92
2023-04-18T10:15:09.815Z,97.52
2023-04-18T10:18:15.560Z,100.00
2023-04-18T10:20:42.675Z,100.00
2023-04-18T10:23:43.546Z,96.80
2023-04-18T10:26:11.174Z,100.00
2023-04-18T10:28:58.259Z,98.79
2023-04-18T10:31:29.629Z,93.68
2023-04-18T10:36:30.710Z,96.50
2023-04-18T10:39:08.970Z,96.51
2023-04-18T10:41:49.487Z,94.57
2023-04-18T10:44:18.997Z,93.76
2023-04-18T10:46:48.927Z,92.16
2023-04-18T10:49:17.753Z,93.34
2023-04-18T10:51:45.374Z,95.60
2023-04-18T10:54:18.721Z,88.95
2023-04-18T10:56:58.513Z,91.93
2023-04-18T10:59:30.345Z,89.00
2023-04-18T11:02:04.252Z,94.25
2023-04-18T11:04:35.602Z,89.92
2023-04-18T11:07:02.834Z,92.67
2023-04-18T11:09:29.639Z,95.04
2023-04-18T11:12:06.602Z,93.49
2023-04-18T11:14:45.372Z,97.28
2023-04-18T11:17:18.330Z,94.43
2023-04-18T11:19:51.876Z,95.80
2023-04-18T11:22:19.285Z,90.83
2023-04-18T11:24:48.975Z,92.23
2023-04-18T11:27:16.143Z,95.52
2023-04-18T11:29:43.042Z,92.49
2023-04-18T11:32:10.266Z,89.87
2023-04-18T11:34:37.279Z,90.81
2023-04-18T11:37:08.331Z,91.69
2023-04-18T11:39:36.575Z,90.25
2023-04-18T11:42:03.482Z,89.96
2023-04-18T11:44:35.569Z,89.13
2023-04-18T11:47:21.869Z,89.68
2023-04-18T11:49:48.673Z,89.89
2023-04-18T11:52:17.774Z,91.03
2023-04-18T11:54:48.113Z,92.80
2023-04-18T11:57:23.932Z,90.01
2023-04-18T11:59:57.730Z,84.73
2023-04-18T12:02:39.326Z,81.89
2023-04-18T12:05:09.615Z,85.02
2023-04-18T12:07:41.969Z,85.91
2023-04-18T12:10:16.061Z,86.81
2023-04-18T12:12:51.043Z,85.78
2023-04-18T12:15:19.285Z,87.00
2023-04-18T12:17:51.094Z,84.53
2023-04-18T12:20:21.938Z,85.74
2023-04-18T12:22:56.276Z,90.01
2023-04-18T12:25:29.292Z,88.57
2023-04-18T12:28:01.868Z,87.93
2023-04-18T12:30:31.224Z,88.65
2023-04-18T12:33:07.345Z,86.95
2023-04-18T12:35:34.773Z,87.45
2023-04-18T12:38:07.032Z,90.29
2023-04-18T12:40:43.818Z,90.14
2023-04-18T12:43:12.491Z,92.00
2023-04-18T12:45:42.847Z,91.26
2023-04-18T12:48:10.028Z,92.42
2023-04-18T12:50:36.829Z,92.30
2023-04-18T12:53:06.488Z,91.75
2023-04-18T12:55:39.865Z,91.95
2023-04-18T12:58:06.955Z,90.01
2023-04-18T13:00:35.610Z,96.06
2023-04-18T13:03:05.394Z,95.37
2023-04-18T13:05:42.916Z,95.72
2023-04-18T13:08:16.820Z,95.00
2023-04-18T13:10:48.121Z,95.47
2023-04-18T13:13:15.217Z,94.37
2023-04-18T13:15:42.866Z,94.18
2023-04-18T13:18:14.703Z,99.04
2023-04-18T13:20:41.705Z,100.00
2023-04-18T13:23:18.881Z,100.00
2023-04-18T13:25:51.024Z,98.17
2023-04-18T13:28:20.079Z,100.00
2023-04-18T13:30:49.372Z,100.00
2023-04-18T13:33:25.856Z,100.00
2023-04-18T13:35:54.047Z,100.00
2023-04-18T13:38:21.026Z,99.00
2023-04-18T13:40:58.080Z,96.79
2023-04-18T13:43:40.000Z,100.00
2023-04-18T13:46:07.198Z,99.00
2023-04-18T13:48:40.211Z,97.98
2023-04-18T13:51:07.396Z,100.00
2023-04-18T13:53:38.815Z,100.00
2023-04-18T13:56:05.995Z,99.26
2023-04-18T13:58:32.571Z,97.16
2023-04-18T14:00:59.146Z,98.96
2023-04-18T14:03:26.532Z,98.71
2023-04-18T14:05:53.258Z,100.00
2023-04-18T14:08:19.912Z,97.15
2023-04-18T14:10:46.522Z,93.94
2023-04-18T14:13:13.096Z,98.25
2023-04-18T14:15:39.776Z,96.61
2023-04-18T14:18:06.537Z,96.21
2023-04-18T14:20:34.815Z,100.00
2023-04-18T14:23:01.993Z,95.29
2023-04-18T14:25:30.357Z,99.55
2023-04-18T14:28:09.652Z,97.74
2023-04-18T14:30:37.239Z,96.80
2023-04-18T14:33:04.208Z,95.89
2023-04-18T14:35:31.609Z,96.51
2023-04-18T14:37:58.290Z,96.36
2023-04-18T14:40:24.938Z,96.89
2023-04-18T14:42:51.490Z,100.00
2023-04-18T14:45:18.226Z,98.31
2023-04-18T14:47:44.903Z,95.55
2023-04-18T14:50:15.412Z,94.88
2023-04-18T14:52:42.314Z,93.86
2023-04-18T14:55:09.825Z,90.74
2023-04-18T14:57:37.413Z,92.55
2023-04-18T15:00:07.556Z,93.59
2023-04-18T15:02:34.501Z,92.45
2023-04-18T15:05:01.281Z,94.17
2023-04-18T15:07:27.913Z,97.92
2023-04-18T15:09:54.625Z,96.79
2023-04-18T15:12:21.237Z,94.03
2023-04-18T15:14:47.794Z,98.99
2023-04-18T15:17:14.396Z,98.50
2023-04-18T15:19:41.088Z,95.51
2023-04-18T15:22:07.839Z,98.60
2023-04-18T15:24:34.608Z,96.30
2023-04-18T15:27:01.458Z,97.18
2023-04-18T15:29:28.106Z,98.52
2023-04-18T15:31:55.249Z,100.00
2023-04-18T15:34:21.919Z,96.91
2023-04-18T15:36:51.533Z,99.53
2023-04-18T15:39:23.679Z,99.29
2023-04-18T15:41:56.616Z,98.97
2023-04-18T15:44:23.388Z,97.41
2023-04-18T15:46:50.790Z,96.26
2023-04-18T15:49:17.371Z,98.70
2023-04-18T15:51:44.156Z,99.92
2023-04-18T15:54:11.050Z,99.51
2023-04-18T15:56:37.709Z,98.40
2023-04-18T15:59:06.102Z,96.90
2023-04-18T16:01:33.241Z,96.57
2023-04-18T16:03:59.977Z,96.32
2023-04-18T16:06:27.379Z,96.31
2023-04-18T16:08:54.005Z,93.78
2023-04-18T16:11:21.745Z,95.90
2023-04-18T16:13:48.458Z,97.09
2023-04-18T16:16:15.200Z,97.85
2023-04-18T16:18:41.804Z,95.94
2023-04-18T16:21:08.439Z,96.30
2023-04-18T16:23:35.072Z,96.53
2023-04-18T16:26:01.651Z,96.07
2023-04-18T16:28:29.234Z,92.37
2023-04-18T16:30:55.995Z,89.72
2023-04-18T16:33:25.962Z,92.96
2023-04-18T16:35:53.158Z,93.71
2023-04-18T16:38:23.402Z,93.06
2023-04-18T16:40:50.084Z,92.61
2023-04-18T16:43:16.747Z,91.38
2023-04-18T16:45:43.354Z,93.88
2023-04-18T16:48:10.162Z,93.77
2023-04-18T16:50:36.813Z,89.02
2023-04-18T16:53:03.476Z,89.06
2023-04-18T16:55:30.096Z,86.73
2023-04-18T16:57:56.668Z,87.16
2023-04-18T17:00:23.399Z,87.01
2023-04-18T17:02:50.902Z,92.14
2023-04-18T17:05:18.739Z,88.40
2023-04-18T17:07:46.077Z,89.59
2023-04-18T17:10:12.793Z,89.83
2023-04-18T17:12:39.510Z,88.05
2023-04-18T17:15:07.022Z,87.82
2023-04-18T17:17:34.800Z,88.75
2023-04-18T17:20:01.539Z,87.69
2023-04-18T17:22:32.335Z,88.27
2023-04-18T17:24:58.937Z,92.25
2023-04-18T17:27:28.903Z,89.67
2023-04-18T17:29:55.750Z,87.07
2023-04-18T17:32:23.217Z,86.87
2023-04-18T17:34:49.882Z,85.82
2023-04-18T17:37:17.186Z,85.59
2023-04-18T17:39:44.107Z,86.55
2023-04-18T17:42:11.009Z,85.40
2023-04-18T17:44:39.843Z,84.49
2023-04-18T17:47:07.069Z,87.17
2023-04-18T17:49:35.105Z,85.97
2023-04-18T17:52:02.450Z,87.14
2023-04-18T17:54:29.046Z,91.36
2023-04-18T17:56:56.013Z,90.46
2023-04-18T17:59:22.668Z,90.87
2023-04-18T18:01:49.785Z,92.26
2023-04-18T18:04:16.793Z,92.47
2023-04-18T18:06:54.673Z,94.45
2023-04-18T18:09:21.310Z,94.29
2023-04-18T18:11:47.908Z,95.99
2023-04-18T18:14:15.527Z,98.95
2023-04-18T18:16:42.628Z,98.02
2023-04-18T18:19:09.318Z,99.44
2023-04-18T18:21:36.528Z,100.00
2023-04-18T18:24:03.301Z,100.00
2023-04-18T18:26:32.123Z,99.88
2023-04-18T18:28:59.028Z,100.00
2023-04-18T18:31:25.803Z,98.76
2023-04-18T18:33:52.404Z,98.73
2023-04-18T18:36:19.116Z,99.01
2023-04-18T18:38:45.771Z,97.25
2023-04-18T18:41:12.437Z,96.73
2023-04-18T18:43:39.116Z,95.52
2023-04-18T18:46:05.747Z,97.41
2023-04-18T18:48:32.839Z,95.14
2023-04-18T18:50:59.487Z,100.00
2023-04-18T18:53:26.281Z,99.15
2023-04-18T18:55:53.175Z,100.00
2023-04-18T18:58:20.155Z,100.00
2023-04-18T19:00:46.974Z,100.00
2023-04-18T19:03:13.915Z,100.00
2023-04-18T19:05:40.692Z,100.00
2023-04-18T19:08:07.610Z,100.00
2023-04-18T19:10:34.464Z,99.76
2023-04-18T19:13:01.401Z,98.13
2023-04-18T19:15:28.224Z,97.48
2023-04-18T19:17:56.205Z,97.66
2023-04-18T19:20:23.678Z,99.38
2023-04-18T19:22:50.408Z,99.29
2023-04-18T19:25:17.188Z,97.77
2023-04-18T19:27:44.765Z,94.59
2023-04-18T19:30:12.030Z,94.17
2023-04-18T19:32:38.839Z,90.30
2023-04-18T19:35:05.857Z,92.00
2023-04-18T19:37:32.431Z,90.96
2023-04-18T19:39:59.031Z,93.25
2023-04-18T19:42:25.622Z,93.82
2023-04-18T19:44:54.640Z,91.36
2023-04-18T19:47:29.048Z,92.11
2023-04-18T19:50:01.726Z,94.38
2023-04-18T19:52:28.548Z,93.22
2023-04-18T19:57:51.313Z,92.14
2023-04-18T20:00:26.272Z,94.49
2023-04-18T20:02:55.047Z,93.97
2023-04-18T20:05:25.011Z,94.90
2023-04-18T20:07:54.302Z,97.75
2023-04-18T20:10:31.738Z,96.84
2023-04-18T20:13:01.531Z,98.30
2023-04-18T20:15:30.745Z,98.84
2023-04-18T20:18:00.665Z,99.60
2023-04-18T20:20:29.051Z,100.00
2023-04-18T20:22:58.460Z,100.00
2023-04-18T20:25:34.283Z,100.00
2023-04-18T20:28:03.794Z,100.00
2023-04-18T20:30:41.864Z,100.00
2023-04-18T20:33:15.290Z,100.00
2023-04-18T20:35:44.699Z,100.00
2023-04-18T20:38:15.254Z,100.00
2023-04-18T20:40:48.652Z,100.00
2023-04-18T20:43:19.428Z,100.00
2023-04-18T20:45:51.702Z,100.00
2023-04-18T20:48:20.705Z,100.00
2023-04-18T20:50:51.520Z,100.00
2023-04-18T20:53:25.241Z,100.00
2023-04-18T20:55:55.008Z,100.00
2023-04-18T20:58:27.174Z,100.00
2023-04-18T21:00:53.968Z,100.00
2023-04-18T21:03:23.428Z,100.00
2023-04-18T21:05:52.828Z,100.00
2023-04-18T21:08:22.100Z,100.00
2023-04-18T21:10:51.940Z,100.00
2023-04-18T21:13:21.680Z,100.00
2023-04-18T21:15:54.085Z,100.00
2023-04-18T21:18:26.065Z,100.00
2023-04-18T21:21:01.611Z,100.00
2023-04-18T21:23:35.832Z,100.00
2023-04-18T21:26:02.588Z,100.00
2023-04-18T21:28:32.407Z,100.00
2023-04-18T21:31:02.345Z,100.00
2023-04-18T21:33:31.645Z,100.00
2023-04-18T21:35:58.300Z,100.00
2023-04-18T21:38:28.432Z,100.00
2023-04-18T21:41:00.871Z,100.00
2023-04-18T21:43:30.149Z,100.00
2023-04-18T21:45:59.126Z,100.00
2023-04-18T21:48:26.063Z,100.00
2023-04-18T21:50:57.264Z,100.00
2023-04-18T21:53:24.160Z,100.00
2023-04-18T21:55:50.830Z,100.00
2023-04-18T21:58:19.398Z,100.00
2023-04-18T22:00:53.988Z,100.00
2023-04-18T22:03:26.638Z,100.00
2023-04-18T22:05:53.543Z,100.00
2023-04-18T22:08:20.428Z,100.00
2023-04-18T22:10:53.242Z,100.00
2023-04-18T22:13:28.582Z,100.00
2023-04-18T22:16:01.699Z,100.00
2023-04-18T22:18:37.773Z,100.00
2023-04-18T22:21:07.264Z,100.00
2023-04-18T22:23:36.056Z,100.00
2023-04-18T22:26:06.765Z,100.00
2023-04-18T22:28:38.193Z,100.00
2023-04-18T22:31:07.045Z,100.00
2023-04-18T22:33:36.855Z,100.00
2023-04-18T22:36:05.527Z,100.00
2023-04-18T22:38:34.668Z,100.00
2023-04-18T22:41:03.916Z,100.00
2023-04-18T22:43:32.918Z,100.00
2023-04-18T22:46:05.181Z,100.00
2023-04-18T22:48:34.988Z,100.00
2023-04-18T22:51:07.356Z,100.00
2023-04-18T22:53:36.060Z,100.00
2023-04-18T22:56:07.877Z,100.00
2023-04-18T22:58:36.390Z,100.00
2023-04-18T23:01:05.389Z,100.00
2023-04-18T23:03:37.334Z,100.00
2023-04-18T23:06:06.590Z,100.00
2023-04-18T23:08:33.281Z,100.00
2023-04-18T23:11:01.220Z,100.00
2023-04-18T23:13:30.120Z,100.00
2023-04-18T23:16:00.010Z,100.00
2023-04-18T23:18:32.371Z,100.00
2023-04-18T23:20:59.877Z,100.00
2023-04-18T23:23:28.165Z,100.00
2023-04-18T23:25:55.137Z,100.00
2023-04-18T23:28:23.760Z,100.00
2023-04-18T23:30:57.648Z,100.00
2023-04-18T23:33:27.746Z,100.00
2023-04-18T23:35:57.715Z,100.00
2023-04-18T23:38:29.987Z,100.00
2023-04-18T23:40:56.690Z,100.00
2023-04-18T23:43:27.426Z,100.00
2023-04-18T23:45:55.285Z,100.00
2023-04-18T23:48:25.071Z,100.00
2023-04-18T23:50:54.537Z,100.00
2023-04-18T23:53:24.675Z,100.00
2023-04-18T23:55:56.246Z,100.00
2023-04-18T23:58:24.186Z,100.00
